Bromptonville, Canada
Current Conditions -  °F | °C
As of 1:27 AM on Friday 19 Dec 2014 (Local Time) from CYSC Reporting Station
Overcast Overcast  
Wind Chill: 15°   Ceiling: 900
Heat Index: 25°   Visibility: 9mi
Dew Point: 23°   Wind: 10mph
Humidity: 93%   Direction: 300°WNW
Pressure: 29.86"   Gusts: NA
Location:  45.47°N, 71.94°W
Report Text: CYSC 190627Z AUTO 30009KT 9SM OVC009 M04/M05 A2986 RMK SLP123
Loading
Personal Weather Stations






























Interactive Weather Map New forecast layout! Learn more

10-Day Weather Forecast

Advertisements
Track Severe Weather on mobile